Richmond West, FL

8:57 PM EDT on May 24, 2017 (GMT -0400)
JA Richmond West | | Change Station
Active Advisory: Severe Thunderstorm Watch

Elev 7 ft 25.61 °N, 80.43 °W | Updated 2 seconds ago

Heavy Thunderstorms and Rain
Heavy Thunderstorm Rain Mist
69.8 °F
Feels Like 69.8 °F
N
5.8
Wind Variable Wind from South
Gusts 5.8 mph

Today
High -- | Low -- °F
--% Chance of Precip.
Yesterday
High -- | Low -- °F
Precip. -- in
Pressure 29.89 in
Visibility 4.0 miles
Clouds Overcast 1000 ft
Dew Point 69 °F
Humidity 97%
Rainfall 0.44 in
Snow Depth Not available.
6:32 AM 8:04 PM
Waning Crescent, 1% visible
METAR KTMB 250053Z 28014G20KT 4SM +TSRA BR OVC010 22/21 A2989 RMK AO2 PK WND 28034/0019 WSHFT 0016 LTG DSNT ALQDS RAB22 TSB38 SLP121 P0036 T02220206
Pressure 29.89 in
Visibility 4.0 miles
Clouds Overcast 1000 ft
Dew Point 69 °F
Humidity 97%
Rainfall 0.44 in
Snow Depth Not available.
6:32 AM 8:04 PM
Waning Crescent, 1% visible
METAR KTMB 250053Z 28014G20KT 4SM +TSRA BR OVC010 22/21 A2989 RMK AO2 PK WND 28034/0019 WSHFT 0016 LTG DSNT ALQDS RAB22 TSB38 SLP121 P0036 T02220206

Get Your Daily Forecast Email!

Thanks for signing up!

Be on the lookout for a verification email in your inbox.

You'll start receiving severe weather alerts in your inbox..

×

10-Day Weather Forecast

Almanac

Astronomy

May. 24, 2017 Rise Set
Actual Time
Civil Twilight
Nautical Twilight
Astronomical Twilight
Moon
Length of Visible Light
Length of Day
Tomorrow will be .
, % of the Moon is Illuminated

Today's Extremes

State Highs State Lows

Community

WunderPhotos

Category 6

Welcome to Category 6. This is the collective home for Weather Underground's featured writeups by Dr. Jeff Masters (right), Bob Henson (left), Chris Burt, and other regular contributors.

Nearby

Air Quality

  Air Quality AQ Index Pollutant
Not available.

Snow Depth

Station Depth Elevation

Earthquake Activity

City Distance Mag. Time & Date
Minimum magnitude displayed is 2.5.

Coastal Water Temperatures

Place Temperature

Stations

Nearby Weather Stations

Station Location Temp. Windchill Dew Point Humidity Wind Precip. Elev Updated Type
                   

Watches & Warnings

Severe Thunderstorm Watch
Issued: 8:43 PM EDT May. 24, 2017 – National Weather Service

Severe Thunderstorm Watch 265 remains in effect until 1100 PM EDT
for the following locations


FL
. Florida counties included are

Broward Miami-Dade Monroe
Palm Beach